sensor_id;sensor_type;location;lat;lon;timestamp;P1;durP1;ratioP1;P2;durP2;ratioP2
56991;SDS011;42885;49.754;18.636;2023-06-22T00:00:14;14.50;;;6.62;;
56991;SDS011;42885;49.754;18.636;2023-06-22T00:05:17;11.40;;;7.50;;
56991;SDS011;42885;49.754;18.636;2023-06-22T00:07:48;12.85;;;6.87;;
56991;SDS011;42885;49.754;18.636;2023-06-22T00:10:18;13.08;;;7.45;;
56991;SDS011;42885;49.754;18.636;2023-06-22T00:12:49;13.72;;;7.65;;
56991;SDS011;42885;49.754;18.636;2023-06-22T00:15:20;13.18;;;7.58;;
56991;SDS011;42885;49.754;18.636;2023-06-22T00:17:51;18.48;;;8.28;;
56991;SDS011;42885;49.754;18.636;2023-06-22T00:20:22;12.37;;;7.30;;
56991;SDS011;42885;49.754;18.636;2023-06-22T00:22:55;16.48;;;7.08;;
56991;SDS011;42885;49.754;18.636;2023-06-22T00:25:26;16.30;;;7.97;;
56991;SDS011;42885;49.754;18.636;2023-06-22T00:27:57;17.52;;;8.98;;
56991;SDS011;42885;49.754;18.636;2023-06-22T00:30:30;15.07;;;8.07;;
56991;SDS011;42885;49.754;18.636;2023-06-22T00:33:01;19.63;;;9.10;;
56991;SDS011;42885;49.754;18.636;2023-06-22T00:35:32;14.73;;;9.00;;
56991;SDS011;42885;49.754;18.636;2023-06-22T00:38:03;15.30;;;8.27;;
56991;SDS011;42885;49.754;18.636;2023-06-22T00:40:34;19.67;;;8.00;;
56991;SDS011;42885;49.754;18.636;2023-06-22T00:43:05;17.00;;;7.22;;
56991;SDS011;42885;49.754;18.636;2023-06-22T00:45:37;15.87;;;7.70;;
56991;SDS011;42885;49.754;18.636;2023-06-22T00:48:08;11.70;;;6.72;;
56991;SDS011;42885;49.754;18.636;2023-06-22T00:50:39;11.93;;;6.97;;
56991;SDS011;42885;49.754;18.636;2023-06-22T00:53:10;10.23;;;6.55;;
56991;SDS011;42885;49.754;18.636;2023-06-22T00:55:42;11.18;;;6.33;;
56991;SDS011;42885;49.754;18.636;2023-06-22T00:58:19;10.03;;;5.25;;
56991;SDS011;42885;49.754;18.636;2023-06-22T01:00:54;11.60;;;5.12;;
56991;SDS011;42885;49.754;18.636;2023-06-22T01:03:24;8.28;;;4.60;;
56991;SDS011;42885;49.754;18.636;2023-06-22T01:05:58;6.80;;;4.75;;
56991;SDS011;42885;49.754;18.636;2023-06-22T01:11:16;8.73;;;5.22;;
56991;SDS011;42885;49.754;18.636;2023-06-22T01:13:57;14.60;;;6.55;;
56991;SDS011;42885;49.754;18.636;2023-06-22T01:16:31;13.18;;;6.97;;
56991;SDS011;42885;49.754;18.636;2023-06-22T01:19:09;15.03;;;7.37;;
56991;SDS011;42885;49.754;18.636;2023-06-22T01:21:41;18.23;;;7.73;;
56991;SDS011;42885;49.754;18.636;2023-06-22T01:24:18;19.85;;;8.73;;
56991;SDS011;42885;49.754;18.636;2023-06-22T01:29:56;18.23;;;8.13;;
56991;SDS011;42885;49.754;18.636;2023-06-22T01:32:28;18.07;;;8.50;;
56991;SDS011;42885;49.754;18.636;2023-06-22T01:35:00;15.27;;;8.80;;
56991;SDS011;42885;49.754;18.636;2023-06-22T01:37:34;14.35;;;7.95;;
56991;SDS011;42885;49.754;18.636;2023-06-22T01:40:07;11.03;;;6.95;;
56991;SDS011;42885;49.754;18.636;2023-06-22T01:42:39;15.47;;;7.70;;
56991;SDS011;42885;49.754;18.636;2023-06-22T01:45:11;16.63;;;7.33;;
56991;SDS011;42885;49.754;18.636;2023-06-22T01:47:43;13.25;;;6.92;;
56991;SDS011;42885;49.754;18.636;2023-06-22T01:50:14;18.52;;;8.28;;
56991;SDS011;42885;49.754;18.636;2023-06-22T01:52:45;19.75;;;9.58;;
56991;SDS011;42885;49.754;18.636;2023-06-22T01:55:17;24.12;;;10.40;;
56991;SDS011;42885;49.754;18.636;2023-06-22T01:57:49;21.07;;;11.03;;
56991;SDS011;42885;49.754;18.636;2023-06-22T02:00:21;20.17;;;11.18;;
56991;SDS011;42885;49.754;18.636;2023-06-22T02:02:59;23.50;;;11.50;;
56991;SDS011;42885;49.754;18.636;2023-06-22T02:05:34;19.98;;;10.35;;
56991;SDS011;42885;49.754;18.636;2023-06-22T02:08:11;19.70;;;9.03;;
56991;SDS011;42885;49.754;18.636;2023-06-22T02:10:46;13.15;;;8.65;;
56991;SDS011;42885;49.754;18.636;2023-06-22T02:13:23;18.75;;;9.33;;
56991;SDS011;42885;49.754;18.636;2023-06-22T02:15:55;12.53;;;7.72;;
56991;SDS011;42885;49.754;18.636;2023-06-22T02:18:27;12.73;;;8.28;;
56991;SDS011;42885;49.754;18.636;2023-06-22T02:20:58;17.52;;;8.58;;
56991;SDS011;42885;49.754;18.636;2023-06-22T02:23:29;13.95;;;7.50;;
56991;SDS011;42885;49.754;18.636;2023-06-22T02:26:03;13.85;;;7.40;;
56991;SDS011;42885;49.754;18.636;2023-06-22T02:28:34;16.03;;;7.70;;
56991;SDS011;42885;49.754;18.636;2023-06-22T02:31:05;13.38;;;6.83;;
56991;SDS011;42885;49.754;18.636;2023-06-22T02:33:36;8.93;;;6.20;;
56991;SDS011;42885;49.754;18.636;2023-06-22T02:36:06;13.10;;;6.42;;
56991;SDS011;42885;49.754;18.636;2023-06-22T02:38:37;10.58;;;6.22;;
56991;SDS011;42885;49.754;18.636;2023-06-22T02:41:11;16.07;;;6.33;;
56991;SDS011;42885;49.754;18.636;2023-06-22T02:43:46;12.45;;;6.22;;
56991;SDS011;42885;49.754;18.636;2023-06-22T02:46:17;13.08;;;5.97;;
56991;SDS011;42885;49.754;18.636;2023-06-22T02:48:48;14.38;;;6.37;;
56991;SDS011;42885;49.754;18.636;2023-06-22T02:51:19;11.55;;;5.92;;
56991;SDS011;42885;49.754;18.636;2023-06-22T02:53:50;11.12;;;6.37;;
56991;SDS011;42885;49.754;18.636;2023-06-22T02:56:23;11.03;;;6.05;;
56991;SDS011;42885;49.754;18.636;2023-06-22T02:58:55;15.10;;;5.87;;
56991;SDS011;42885;49.754;18.636;2023-06-22T03:01:28;12.60;;;5.45;;
56991;SDS011;42885;49.754;18.636;2023-06-22T03:04:00;8.58;;;5.60;;
56991;SDS011;42885;49.754;18.636;2023-06-22T03:06:31;11.43;;;6.20;;
56991;SDS011;42885;49.754;18.636;2023-06-22T03:09:02;15.40;;;6.83;;
56991;SDS011;42885;49.754;18.636;2023-06-22T03:11:35;10.93;;;6.30;;
56991;SDS011;42885;49.754;18.636;2023-06-22T03:14:06;11.45;;;6.35;;
56991;SDS011;42885;49.754;18.636;2023-06-22T03:16:37;12.23;;;6.70;;
56991;SDS011;42885;49.754;18.636;2023-06-22T03:19:09;12.63;;;6.85;;
56991;SDS011;42885;49.754;18.636;2023-06-22T03:21:40;14.10;;;6.40;;
56991;SDS011;42885;49.754;18.636;2023-06-22T03:24:11;12.88;;;7.35;;
56991;SDS011;42885;49.754;18.636;2023-06-22T03:26:42;10.53;;;6.60;;
56991;SDS011;42885;49.754;18.636;2023-06-22T03:29:14;12.50;;;6.60;;
56991;SDS011;42885;49.754;18.636;2023-06-22T03:31:47;12.63;;;6.80;;
56991;SDS011;42885;49.754;18.636;2023-06-22T03:34:18;15.18;;;7.30;;
56991;SDS011;42885;49.754;18.636;2023-06-22T03:36:49;12.90;;;7.00;;
56991;SDS011;42885;49.754;18.636;2023-06-22T03:39:20;12.63;;;6.97;;
56991;SDS011;42885;49.754;18.636;2023-06-22T03:41:51;14.23;;;7.45;;
56991;SDS011;42885;49.754;18.636;2023-06-22T03:44:22;17.25;;;8.50;;
56991;SDS011;42885;49.754;18.636;2023-06-22T03:46:52;15.03;;;7.78;;
56991;SDS011;42885;49.754;18.636;2023-06-22T03:49:24;11.40;;;8.30;;
56991;SDS011;42885;49.754;18.636;2023-06-22T03:51:55;19.23;;;7.60;;
56991;SDS011;42885;49.754;18.636;2023-06-22T03:54:26;13.18;;;8.00;;
56991;SDS011;42885;49.754;18.636;2023-06-22T03:56:57;13.75;;;7.87;;
56991;SDS011;42885;49.754;18.636;2023-06-22T03:59:28;13.25;;;7.78;;
56991;SDS011;42885;49.754;18.636;2023-06-22T04:01:59;14.03;;;8.08;;
56991;SDS011;42885;49.754;18.636;2023-06-22T04:04:30;19.42;;;11.60;;
56991;SDS011;42885;49.754;18.636;2023-06-22T04:07:02;15.07;;;9.33;;
56991;SDS011;42885;49.754;18.636;2023-06-22T04:09:33;17.33;;;9.80;;
56991;SDS011;42885;49.754;18.636;2023-06-22T04:12:04;22.70;;;10.50;;
56991;SDS011;42885;49.754;18.636;2023-06-22T04:14:36;16.35;;;10.63;;
56991;SDS011;42885;49.754;18.636;2023-06-22T04:17:06;17.70;;;9.03;;
56991;SDS011;42885;49.754;18.636;2023-06-22T04:19:37;16.97;;;9.17;;
56991;SDS011;42885;49.754;18.636;2023-06-22T04:22:08;18.32;;;8.88;;
56991;SDS011;42885;49.754;18.636;2023-06-22T04:24:40;20.05;;;10.55;;
56991;SDS011;42885;49.754;18.636;2023-06-22T04:27:11;15.43;;;8.15;;
56991;SDS011;42885;49.754;18.636;2023-06-22T04:29:42;15.38;;;7.60;;
56991;SDS011;42885;49.754;18.636;2023-06-22T04:34:44;16.95;;;7.10;;
56991;SDS011;42885;49.754;18.636;2023-06-22T04:37:15;15.32;;;7.15;;
56991;SDS011;42885;49.754;18.636;2023-06-22T04:39:46;16.20;;;7.65;;
56991;SDS011;42885;49.754;18.636;2023-06-22T04:42:17;16.20;;;8.08;;
56991;SDS011;42885;49.754;18.636;2023-06-22T04:44:48;20.12;;;9.15;;
56991;SDS011;42885;49.754;18.636;2023-06-22T04:47:19;14.83;;;8.50;;
56991;SDS011;42885;49.754;18.636;2023-06-22T04:49:50;15.32;;;8.45;;
56991;SDS011;42885;49.754;18.636;2023-06-22T04:52:20;17.45;;;8.68;;
56991;SDS011;42885;49.754;18.636;2023-06-22T04:54:51;15.13;;;8.23;;
56991;SDS011;42885;49.754;18.636;2023-06-22T04:57:23;38.00;;;27.23;;
56991;SDS011;42885;49.754;18.636;2023-06-22T04:59:56;22.67;;;14.67;;
56991;SDS011;42885;49.754;18.636;2023-06-22T05:02:28;29.77;;;15.35;;
56991;SDS011;42885;49.754;18.636;2023-06-22T05:05:01;22.77;;;9.77;;
56991;SDS011;42885;49.754;18.636;2023-06-22T05:07:34;17.50;;;8.30;;
56991;SDS011;42885;49.754;18.636;2023-06-22T05:10:05;22.35;;;8.95;;
56991;SDS011;42885;49.754;18.636;2023-06-22T05:12:36;18.42;;;7.87;;
56991;SDS011;42885;49.754;18.636;2023-06-22T05:15:07;22.82;;;8.80;;
56991;SDS011;42885;49.754;18.636;2023-06-22T05:17:38;19.20;;;8.80;;
56991;SDS011;42885;49.754;18.636;2023-06-22T05:20:11;22.93;;;8.33;;
56991;SDS011;42885;49.754;18.636;2023-06-22T05:22:42;18.57;;;8.53;;
56991;SDS011;42885;49.754;18.636;2023-06-22T05:25:15;16.27;;;8.30;;
56991;SDS011;42885;49.754;18.636;2023-06-22T05:27:46;19.65;;;7.58;;
56991;SDS011;42885;49.754;18.636;2023-06-22T05:30:16;22.65;;;8.40;;
56991;SDS011;42885;49.754;18.636;2023-06-22T05:32:47;23.27;;;9.17;;
56991;SDS011;42885;49.754;18.636;2023-06-22T05:35:18;18.23;;;7.97;;
56991;SDS011;42885;49.754;18.636;2023-06-22T05:37:49;15.58;;;7.97;;
56991;SDS011;42885;49.754;18.636;2023-06-22T05:40:20;13.83;;;7.70;;
56991;SDS011;42885;49.754;18.636;2023-06-22T05:42:51;18.00;;;8.03;;
56991;SDS011;42885;49.754;18.636;2023-06-22T05:45:21;17.37;;;7.50;;
56991;SDS011;42885;49.754;18.636;2023-06-22T05:47:52;16.37;;;7.70;;
56991;SDS011;42885;49.754;18.636;2023-06-22T05:50:23;17.10;;;8.08;;
56991;SDS011;42885;49.754;18.636;2023-06-22T05:52:54;13.60;;;8.53;;
56991;SDS011;42885;49.754;18.636;2023-06-22T05:55:25;26.45;;;9.88;;
56991;SDS011;42885;49.754;18.636;2023-06-22T05:57:57;21.35;;;9.35;;
56991;SDS011;42885;49.754;18.636;2023-06-22T06:00:29;16.17;;;8.83;;
56991;SDS011;42885;49.754;18.636;2023-06-22T06:02:59;18.02;;;9.15;;
56991;SDS011;42885;49.754;18.636;2023-06-22T06:05:32;16.57;;;9.83;;
56991;SDS011;42885;49.754;18.636;2023-06-22T06:08:04;14.70;;;10.03;;
56991;SDS011;42885;49.754;18.636;2023-06-22T06:10:36;17.23;;;10.97;;
56991;SDS011;42885;49.754;18.636;2023-06-22T06:13:07;20.50;;;11.55;;
56991;SDS011;42885;49.754;18.636;2023-06-22T06:15:38;18.60;;;11.80;;
56991;SDS011;42885;49.754;18.636;2023-06-22T06:18:09;14.68;;;11.48;;
56991;SDS011;42885;49.754;18.636;2023-06-22T06:20:40;20.32;;;13.10;;
56991;SDS011;42885;49.754;18.636;2023-06-22T06:23:10;17.92;;;12.60;;
56991;SDS011;42885;49.754;18.636;2023-06-22T06:25:41;22.53;;;12.17;;
56991;SDS011;42885;49.754;18.636;2023-06-22T06:28:12;18.98;;;13.43;;
56991;SDS011;42885;49.754;18.636;2023-06-22T06:30:43;19.40;;;12.25;;
56991;SDS011;42885;49.754;18.636;2023-06-22T06:35:45;16.55;;;12.25;;
56991;SDS011;42885;49.754;18.636;2023-06-22T06:38:16;21.48;;;12.60;;
56991;SDS011;42885;49.754;18.636;2023-06-22T06:40:47;16.73;;;12.70;;
56991;SDS011;42885;49.754;18.636;2023-06-22T06:43:18;19.48;;;12.85;;
56991;SDS011;42885;49.754;18.636;2023-06-22T06:45:52;19.37;;;14.00;;
56991;SDS011;42885;49.754;18.636;2023-06-22T06:48:23;21.20;;;13.00;;
56991;SDS011;42885;49.754;18.636;2023-06-22T06:50:53;16.97;;;14.03;;
56991;SDS011;42885;49.754;18.636;2023-06-22T06:53:24;21.30;;;15.10;;
56991;SDS011;42885;49.754;18.636;2023-06-22T06:55:56;24.40;;;15.25;;
56991;SDS011;42885;49.754;18.636;2023-06-22T06:58:27;19.60;;;15.13;;
56991;SDS011;42885;49.754;18.636;2023-06-22T07:00:57;19.55;;;15.48;;
56991;SDS011;42885;49.754;18.636;2023-06-22T07:03:28;23.10;;;15.40;;
56991;SDS011;42885;49.754;18.636;2023-06-22T07:08:30;19.65;;;15.20;;
56991;SDS011;42885;49.754;18.636;2023-06-22T07:11:02;21.52;;;15.65;;
56991;SDS011;42885;49.754;18.636;2023-06-22T07:13:33;21.00;;;15.60;;
56991;SDS011;42885;49.754;18.636;2023-06-22T07:16:04;19.48;;;16.10;;
56991;SDS011;42885;49.754;18.636;2023-06-22T07:18:35;19.57;;;16.20;;
56991;SDS011;42885;49.754;18.636;2023-06-22T07:21:05;26.37;;;18.07;;
56991;SDS011;42885;49.754;18.636;2023-06-22T07:23:36;22.17;;;16.97;;
56991;SDS011;42885;49.754;18.636;2023-06-22T07:26:07;21.35;;;17.32;;
56991;SDS011;42885;49.754;18.636;2023-06-22T07:28:38;21.73;;;17.27;;
56991;SDS011;42885;49.754;18.636;2023-06-22T07:31:10;17.32;;;15.45;;
56991;SDS011;42885;49.754;18.636;2023-06-22T07:33:40;19.90;;;16.20;;
56991;SDS011;42885;49.754;18.636;2023-06-22T07:36:11;23.92;;;17.25;;
56991;SDS011;42885;49.754;18.636;2023-06-22T07:38:42;22.62;;;16.00;;
56991;SDS011;42885;49.754;18.636;2023-06-22T07:41:13;19.45;;;17.10;;
56991;SDS011;42885;49.754;18.636;2023-06-22T07:43:45;22.42;;;16.30;;
56991;SDS011;42885;49.754;18.636;2023-06-22T07:46:15;20.37;;;15.98;;
56991;SDS011;42885;49.754;18.636;2023-06-22T07:48:46;19.40;;;17.10;;
56991;SDS011;42885;49.754;18.636;2023-06-22T07:51:17;19.87;;;16.23;;
56991;SDS011;42885;49.754;18.636;2023-06-22T07:53:48;18.92;;;16.35;;
56991;SDS011;42885;49.754;18.636;2023-06-22T07:56:19;19.02;;;15.78;;
56991;SDS011;42885;49.754;18.636;2023-06-22T07:58:50;18.48;;;14.98;;
56991;SDS011;42885;49.754;18.636;2023-06-22T08:01:22;19.12;;;16.25;;
56991;SDS011;42885;49.754;18.636;2023-06-22T08:03:52;21.07;;;15.83;;
56991;SDS011;42885;49.754;18.636;2023-06-22T08:06:23;16.37;;;14.47;;
56991;SDS011;42885;49.754;18.636;2023-06-22T08:08:54;18.97;;;17.07;;
56991;SDS011;42885;49.754;18.636;2023-06-22T08:11:25;22.35;;;16.23;;
56991;SDS011;42885;49.754;18.636;2023-06-22T08:13:57;18.73;;;15.10;;
56991;SDS011;42885;49.754;18.636;2023-06-22T08:16:28;18.90;;;15.08;;
56991;SDS011;42885;49.754;18.636;2023-06-22T08:19:02;18.62;;;16.40;;
56991;SDS011;42885;49.754;18.636;2023-06-22T08:21:33;21.12;;;16.32;;
56991;SDS011;42885;49.754;18.636;2023-06-22T08:24:04;20.70;;;16.87;;
56991;SDS011;42885;49.754;18.636;2023-06-22T08:26:36;20.40;;;17.33;;
56991;SDS011;42885;49.754;18.636;2023-06-22T08:29:06;19.70;;;16.02;;
56991;SDS011;42885;49.754;18.636;2023-06-22T08:31:38;19.73;;;15.63;;
56991;SDS011;42885;49.754;18.636;2023-06-22T08:34:08;17.30;;;15.43;;
56991;SDS011;42885;49.754;18.636;2023-06-22T08:36:39;17.27;;;15.53;;
56991;SDS011;42885;49.754;18.636;2023-06-22T08:39:14;18.85;;;15.55;;
56991;SDS011;42885;49.754;18.636;2023-06-22T08:41:45;17.20;;;15.23;;
56991;SDS011;42885;49.754;18.636;2023-06-22T08:44:17;20.20;;;16.27;;
56991;SDS011;42885;49.754;18.636;2023-06-22T08:46:48;17.65;;;15.38;;
56991;SDS011;42885;49.754;18.636;2023-06-22T08:49:19;16.70;;;14.58;;
56991;SDS011;42885;49.754;18.636;2023-06-22T08:51:51;21.55;;;15.35;;
56991;SDS011;42885;49.754;18.636;2023-06-22T08:54:23;16.53;;;14.83;;
56991;SDS011;42885;49.754;18.636;2023-06-22T08:56:54;19.30;;;15.83;;
56991;SDS011;42885;49.754;18.636;2023-06-22T08:59:25;19.90;;;16.37;;
56991;SDS011;42885;49.754;18.636;2023-06-22T09:01:56;17.05;;;15.40;;
56991;SDS011;42885;49.754;18.636;2023-06-22T09:04:27;16.30;;;14.65;;
56991;SDS011;42885;49.754;18.636;2023-06-22T09:06:57;15.18;;;13.68;;
56991;SDS011;42885;49.754;18.636;2023-06-22T09:09:28;17.40;;;14.00;;
56991;SDS011;42885;49.754;18.636;2023-06-22T09:11:59;15.08;;;13.22;;
56991;SDS011;42885;49.754;18.636;2023-06-22T09:14:30;16.27;;;13.38;;
56991;SDS011;42885;49.754;18.636;2023-06-22T09:17:00;14.80;;;13.28;;
56991;SDS011;42885;49.754;18.636;2023-06-22T09:19:31;14.60;;;12.90;;
56991;SDS011;42885;49.754;18.636;2023-06-22T09:22:02;17.77;;;14.20;;
56991;SDS011;42885;49.754;18.636;2023-06-22T09:24:36;16.82;;;14.28;;
56991;SDS011;42885;49.754;18.636;2023-06-22T09:27:07;16.25;;;14.68;;
56991;SDS011;42885;49.754;18.636;2023-06-22T09:29:38;15.10;;;13.68;;
56991;SDS011;42885;49.754;18.636;2023-06-22T09:32:09;17.23;;;14.43;;
56991;SDS011;42885;49.754;18.636;2023-06-22T09:34:39;15.73;;;14.17;;
56991;SDS011;42885;49.754;18.636;2023-06-22T09:37:10;16.60;;;14.93;;
56991;SDS011;42885;49.754;18.636;2023-06-22T09:39:41;18.87;;;15.35;;
56991;SDS011;42885;49.754;18.636;2023-06-22T09:42:12;17.82;;;15.38;;
56991;SDS011;42885;49.754;18.636;2023-06-22T09:44:43;16.97;;;15.28;;
56991;SDS011;42885;49.754;18.636;2023-06-22T09:47:13;18.87;;;15.80;;
56991;SDS011;42885;49.754;18.636;2023-06-22T09:49:45;18.77;;;15.88;;
56991;SDS011;42885;49.754;18.636;2023-06-22T09:52:15;17.55;;;15.72;;
56991;SDS011;42885;49.754;18.636;2023-06-22T09:54:46;17.53;;;14.87;;
56991;SDS011;42885;49.754;18.636;2023-06-22T09:57:17;18.45;;;15.25;;
56991;SDS011;42885;49.754;18.636;2023-06-22T09:59:48;17.62;;;15.88;;
56991;SDS011;42885;49.754;18.636;2023-06-22T10:02:19;17.02;;;15.13;;
56991;SDS011;42885;49.754;18.636;2023-06-22T10:04:51;17.80;;;15.93;;
56991;SDS011;42885;49.754;18.636;2023-06-22T10:07:21;19.00;;;17.00;;
56991;SDS011;42885;49.754;18.636;2023-06-22T10:09:52;19.05;;;16.48;;
56991;SDS011;42885;49.754;18.636;2023-06-22T10:12:23;20.08;;;17.77;;
56991;SDS011;42885;49.754;18.636;2023-06-22T10:14:54;17.23;;;15.48;;
56991;SDS011;42885;49.754;18.636;2023-06-22T10:17:25;18.73;;;16.40;;
56991;SDS011;42885;49.754;18.636;2023-06-22T10:19:55;19.45;;;16.40;;
56991;SDS011;42885;49.754;18.636;2023-06-22T10:22:26;18.73;;;16.82;;
56991;SDS011;42885;49.754;18.636;2023-06-22T10:24:57;17.77;;;15.98;;
56991;SDS011;42885;49.754;18.636;2023-06-22T10:27:28;17.80;;;16.10;;
56991;SDS011;42885;49.754;18.636;2023-06-22T10:30:00;19.80;;;16.37;;
56991;SDS011;42885;49.754;18.636;2023-06-22T10:32:31;18.37;;;16.57;;
56991;SDS011;42885;49.754;18.636;2023-06-22T10:35:02;18.40;;;16.55;;
56991;SDS011;42885;49.754;18.636;2023-06-22T10:37:33;19.17;;;16.07;;
56991;SDS011;42885;49.754;18.636;2023-06-22T10:40:04;16.93;;;15.23;;
56991;SDS011;42885;49.754;18.636;2023-06-22T10:42:36;23.02;;;15.98;;
56991;SDS011;42885;49.754;18.636;2023-06-22T10:45:07;19.90;;;17.97;;
56991;SDS011;42885;49.754;18.636;2023-06-22T10:47:39;18.73;;;16.33;;
56991;SDS011;42885;49.754;18.636;2023-06-22T10:52:41;18.62;;;16.48;;
56991;SDS011;42885;49.754;18.636;2023-06-22T10:55:11;17.60;;;15.80;;
56991;SDS011;42885;49.754;18.636;2023-06-22T10:57:42;19.53;;;15.60;;
56991;SDS011;42885;49.754;18.636;2023-06-22T11:00:15;17.20;;;15.38;;
56991;SDS011;42885;49.754;18.636;2023-06-22T11:02:46;17.20;;;15.30;;
56991;SDS011;42885;49.754;18.636;2023-06-22T11:05:17;18.82;;;15.25;;
56991;SDS011;42885;49.754;18.636;2023-06-22T11:07:48;16.60;;;15.00;;
56991;SDS011;42885;49.754;18.636;2023-06-22T11:10:19;17.50;;;15.60;;
56991;SDS011;42885;49.754;18.636;2023-06-22T11:12:50;18.57;;;15.83;;
56991;SDS011;42885;49.754;18.636;2023-06-22T11:17:51;18.10;;;16.23;;
56991;SDS011;42885;49.754;18.636;2023-06-22T11:20:22;19.00;;;17.00;;
56991;SDS011;42885;49.754;18.636;2023-06-22T11:22:53;18.37;;;15.90;;
56991;SDS011;42885;49.754;18.636;2023-06-22T11:25:24;20.97;;;16.45;;
56991;SDS011;42885;49.754;18.636;2023-06-22T11:27:55;17.17;;;14.98;;
56991;SDS011;42885;49.754;18.636;2023-06-22T11:30:26;18.12;;;16.27;;
56991;SDS011;42885;49.754;18.636;2023-06-22T11:32:58;18.45;;;16.73;;
56991;SDS011;42885;49.754;18.636;2023-06-22T11:35:29;21.37;;;16.97;;
56991;SDS011;42885;49.754;18.636;2023-06-22T11:37:59;16.82;;;15.28;;
56991;SDS011;42885;49.754;18.636;2023-06-22T11:40:32;17.20;;;15.38;;
56991;SDS011;42885;49.754;18.636;2023-06-22T11:43:03;17.50;;;15.65;;
56991;SDS011;42885;49.754;18.636;2023-06-22T11:45:33;20.67;;;15.90;;
56991;SDS011;42885;49.754;18.636;2023-06-22T11:48:04;17.60;;;15.77;;
56991;SDS011;42885;49.754;18.636;2023-06-22T11:53:05;16.65;;;14.95;;
56991;SDS011;42885;49.754;18.636;2023-06-22T11:55:36;16.70;;;14.95;;
56991;SDS011;42885;49.754;18.636;2023-06-22T11:58:07;16.77;;;15.10;;
56991;SDS011;42885;49.754;18.636;2023-06-22T12:00:37;18.83;;;16.80;;
56991;SDS011;42885;49.754;18.636;2023-06-22T12:03:09;17.43;;;15.60;;
56991;SDS011;42885;49.754;18.636;2023-06-22T12:08:10;16.32;;;14.53;;
56991;SDS011;42885;49.754;18.636;2023-06-22T12:10:42;17.02;;;15.13;;
56991;SDS011;42885;49.754;18.636;2023-06-22T12:13:13;15.43;;;13.80;;
56991;SDS011;42885;49.754;18.636;2023-06-22T12:18:14;15.60;;;13.10;;
56991;SDS011;42885;49.754;18.636;2023-06-22T12:20:45;15.53;;;13.20;;
56991;SDS011;42885;49.754;18.636;2023-06-22T12:23:17;17.80;;;14.17;;
56991;SDS011;42885;49.754;18.636;2023-06-22T12:28:18;15.38;;;13.38;;
56991;SDS011;42885;49.754;18.636;2023-06-22T12:30:49;15.70;;;14.10;;
56991;SDS011;42885;49.754;18.636;2023-06-22T12:33:20;15.60;;;13.83;;
56991;SDS011;42885;49.754;18.636;2023-06-22T12:35:51;16.73;;;14.83;;
56991;SDS011;42885;49.754;18.636;2023-06-22T12:38:21;14.93;;;13.43;;
56991;SDS011;42885;49.754;18.636;2023-06-22T12:40:54;14.73;;;13.32;;
56991;SDS011;42885;49.754;18.636;2023-06-22T12:43:25;15.68;;;13.70;;
56991;SDS011;42885;49.754;18.636;2023-06-22T12:45:56;15.60;;;14.03;;
56991;SDS011;42885;49.754;18.636;2023-06-22T12:48:27;16.03;;;14.17;;
56991;SDS011;42885;49.754;18.636;2023-06-22T12:50:57;13.90;;;12.73;;
56991;SDS011;42885;49.754;18.636;2023-06-22T12:53:28;18.32;;;12.43;;
56991;SDS011;42885;49.754;18.636;2023-06-22T12:55:59;14.00;;;12.55;;
56991;SDS011;42885;49.754;18.636;2023-06-22T12:58:30;14.17;;;12.20;;
56991;SDS011;42885;49.754;18.636;2023-06-22T13:01:01;13.48;;;11.95;;
56991;SDS011;42885;49.754;18.636;2023-06-22T13:03:31;13.00;;;11.67;;
56991;SDS011;42885;49.754;18.636;2023-06-22T13:06:02;13.30;;;11.93;;
56991;SDS011;42885;49.754;18.636;2023-06-22T13:08:33;12.63;;;11.22;;
56991;SDS011;42885;49.754;18.636;2023-06-22T13:11:04;14.43;;;12.30;;
56991;SDS011;42885;49.754;18.636;2023-06-22T13:13:35;13.40;;;12.28;;
56991;SDS011;42885;49.754;18.636;2023-06-22T13:16:06;13.60;;;12.40;;
56991;SDS011;42885;49.754;18.636;2023-06-22T13:18:37;14.40;;;13.03;;
56991;SDS011;42885;49.754;18.636;2023-06-22T13:21:08;13.40;;;12.00;;
56991;SDS011;42885;49.754;18.636;2023-06-22T13:23:39;12.63;;;11.43;;
56991;SDS011;42885;49.754;18.636;2023-06-22T13:26:10;13.17;;;11.77;;
56991;SDS011;42885;49.754;18.636;2023-06-22T13:28:42;12.88;;;11.50;;
56991;SDS011;42885;49.754;18.636;2023-06-22T13:33:44;11.90;;;10.78;;
56991;SDS011;42885;49.754;18.636;2023-06-22T13:36:16;11.73;;;10.70;;
56991;SDS011;42885;49.754;18.636;2023-06-22T13:38:50;12.17;;;11.00;;
56991;SDS011;42885;49.754;18.636;2023-06-22T13:41:21;12.20;;;11.20;;
56991;SDS011;42885;49.754;18.636;2023-06-22T13:43:52;12.63;;;11.43;;
56991;SDS011;42885;49.754;18.636;2023-06-22T13:46:23;13.05;;;11.43;;
56991;SDS011;42885;49.754;18.636;2023-06-22T13:48:54;12.10;;;11.05;;
56991;SDS011;42885;49.754;18.636;2023-06-22T13:51:25;11.70;;;10.50;;
56991;SDS011;42885;49.754;18.636;2023-06-22T13:53:57;11.48;;;10.45;;
56991;SDS011;42885;49.754;18.636;2023-06-22T13:56:28;10.67;;;9.67;;
56991;SDS011;42885;49.754;18.636;2023-06-22T13:58:58;11.10;;;10.10;;
56991;SDS011;42885;49.754;18.636;2023-06-22T14:01:29;11.10;;;10.00;;
56991;SDS011;42885;49.754;18.636;2023-06-22T14:04:00;11.05;;;9.75;;
56991;SDS011;42885;49.754;18.636;2023-06-22T14:06:31;10.33;;;9.33;;
56991;SDS011;42885;49.754;18.636;2023-06-22T14:09:02;10.77;;;9.70;;
56991;SDS011;42885;49.754;18.636;2023-06-22T14:11:33;10.00;;;9.00;;
56991;SDS011;42885;49.754;18.636;2023-06-22T14:14:03;10.63;;;9.63;;
56991;SDS011;42885;49.754;18.636;2023-06-22T14:16:34;11.20;;;10.10;;
56991;SDS011;42885;49.754;18.636;2023-06-22T14:19:05;10.83;;;9.83;;
56991;SDS011;42885;49.754;18.636;2023-06-22T14:21:36;10.53;;;9.63;;
56991;SDS011;42885;49.754;18.636;2023-06-22T14:24:07;11.30;;;9.33;;
56991;SDS011;42885;49.754;18.636;2023-06-22T14:29:07;10.58;;;9.58;;
56991;SDS011;42885;49.754;18.636;2023-06-22T14:31:38;10.73;;;9.63;;
56991;SDS011;42885;49.754;18.636;2023-06-22T14:34:09;10.00;;;9.20;;
56991;SDS011;42885;49.754;18.636;2023-06-22T14:36:40;9.87;;;9.03;;
56991;SDS011;42885;49.754;18.636;2023-06-22T14:41:41;9.65;;;8.85;;
56991;SDS011;42885;49.754;18.636;2023-06-22T14:44:12;9.97;;;9.03;;
56991;SDS011;42885;49.754;18.636;2023-06-22T14:46:42;10.90;;;9.90;;
56991;SDS011;42885;49.754;18.636;2023-06-22T14:49:13;10.27;;;9.37;;
56991;SDS011;42885;49.754;18.636;2023-06-22T14:51:44;10.50;;;9.50;;
56991;SDS011;42885;49.754;18.636;2023-06-22T14:54:15;10.73;;;9.37;;
56991;SDS011;42885;49.754;18.636;2023-06-22T14:56:47;9.83;;;9.03;;
56991;SDS011;42885;49.754;18.636;2023-06-22T14:59:18;15.45;;;9.73;;
56991;SDS011;42885;49.754;18.636;2023-06-22T15:01:49;10.37;;;9.40;;
56991;SDS011;42885;49.754;18.636;2023-06-22T15:04:19;10.43;;;9.48;;
56991;SDS011;42885;49.754;18.636;2023-06-22T15:06:50;10.28;;;9.43;;
56991;SDS011;42885;49.754;18.636;2023-06-22T15:09:21;9.87;;;9.07;;
56991;SDS011;42885;49.754;18.636;2023-06-22T15:11:52;9.93;;;9.13;;
56991;SDS011;42885;49.754;18.636;2023-06-22T15:14:23;12.20;;;9.37;;
56991;SDS011;42885;49.754;18.636;2023-06-22T15:16:54;10.27;;;9.37;;